sensor_id;sensor_type;location;lat;lon;timestamp;pressure;altitude;pressure_sealevel;temperature;humidity
10587;BME280;5341;47.606;7.576;2023-02-17T00:01:32;99880.75;;;11.06;55.76
10587;BME280;5341;47.606;7.576;2023-02-17T00:04:00;99887.09;;;11.05;55.32
10587;BME280;5341;47.606;7.576;2023-02-17T00:06:29;99879.06;;;11.05;55.46
10587;BME280;5341;47.606;7.576;2023-02-17T00:08:57;99874.72;;;11.04;55.80
10587;BME280;5341;47.606;7.576;2023-02-17T00:11:26;99876.56;;;11.04;55.47
10587;BME280;5341;47.606;7.576;2023-02-17T00:13:54;99877.41;;;11.04;55.50
10587;BME280;5341;47.606;7.576;2023-02-17T00:16:23;99874.88;;;11.03;55.99
10587;BME280;5341;47.606;7.576;2023-02-17T00:18:55;99884.59;;;11.04;55.71
10587;BME280;5341;47.606;7.576;2023-02-17T00:21:25;99882.91;;;11.03;55.77
10587;BME280;5341;47.606;7.576;2023-02-17T00:23:52;99879.38;;;11.02;55.90
10587;BME280;5341;47.606;7.576;2023-02-17T00:26:20;99876.69;;;11.02;55.61
10587;BME280;5341;47.606;7.576;2023-02-17T00:28:48;99878.53;;;11.02;55.55
10587;BME280;5341;47.606;7.576;2023-02-17T00:31:18;99876.00;;;11.00;55.67
10587;BME280;5341;47.606;7.576;2023-02-17T00:33:46;99873.34;;;11.00;55.52
10587;BME280;5341;47.606;7.576;2023-02-17T00:36:17;99867.97;;;11.00;55.72
10587;BME280;5341;47.606;7.576;2023-02-17T00:38:46;99876.19;;;10.99;55.52
10587;BME280;5341;47.606;7.576;2023-02-17T00:41:14;99875.19;;;11.00;55.83
10587;BME280;5341;47.606;7.576;2023-02-17T00:43:41;99876.19;;;10.99;55.64
10587;BME280;5341;47.606;7.576;2023-02-17T00:46:08;99873.50;;;10.99;55.37
10587;BME280;5341;47.606;7.576;2023-02-17T00:48:36;99868.16;;;10.99;55.48
10587;BME280;5341;47.606;7.576;2023-02-17T00:51:03;99877.19;;;10.98;55.21
10587;BME280;5341;47.606;7.576;2023-02-17T00:53:35;99877.19;;;10.98;55.55
10587;BME280;5341;47.606;7.576;2023-02-17T00:56:03;99881.69;;;10.97;55.09
10587;BME280;5341;47.606;7.576;2023-02-17T00:58:31;99880.84;;;10.97;55.04
10587;BME280;5341;47.606;7.576;2023-02-17T01:00:58;99875.50;;;10.97;55.38
10587;BME280;5341;47.606;7.576;2023-02-17T01:03:27;99881.84;;;10.96;55.05
10587;BME280;5341;47.606;7.576;2023-02-17T01:05:54;99891.56;;;10.97;54.79
10587;BME280;5341;47.606;7.576;2023-02-17T01:08:23;99894.41;;;10.95;54.45
10587;BME280;5341;47.606;7.576;2023-02-17T01:10:52;99885.38;;;10.96;55.36
10587;BME280;5341;47.606;7.576;2023-02-17T01:13:19;99887.03;;;10.97;55.11
10587;BME280;5341;47.606;7.576;2023-02-17T01:15:49;99891.41;;;10.98;55.50
10587;BME280;5341;47.606;7.576;2023-02-17T01:18:19;99895.75;;;10.99;55.13
10587;BME280;5341;47.606;7.576;2023-02-17T01:20:48;99897.59;;;10.99;54.48
10587;BME280;5341;47.606;7.576;2023-02-17T01:23:15;99894.75;;;11.00;55.15
10587;BME280;5341;47.606;7.576;2023-02-17T01:25:44;99881.38;;;11.00;55.48
10587;BME280;5341;47.606;7.576;2023-02-17T01:28:17;99887.56;;;11.01;55.73
10587;BME280;5341;47.606;7.576;2023-02-17T01:30:45;99893.91;;;11.00;55.49
10587;BME280;5341;47.606;7.576;2023-02-17T01:33:13;99901.09;;;10.99;55.88
10587;BME280;5341;47.606;7.576;2023-02-17T01:35:41;99895.75;;;10.99;55.83
10587;BME280;5341;47.606;7.576;2023-02-17T01:38:08;99878.84;;;10.99;55.86
10587;BME280;5341;47.606;7.576;2023-02-17T01:40:36;99867.31;;;10.98;55.69
10587;BME280;5341;47.606;7.576;2023-02-17T01:43:04;99872.81;;;10.97;55.26
10587;BME280;5341;47.606;7.576;2023-02-17T01:45:37;99871.16;;;10.96;55.92
10587;BME280;5341;47.606;7.576;2023-02-17T01:48:09;99874.81;;;10.95;55.71
10587;BME280;5341;47.606;7.576;2023-02-17T01:50:40;99882.00;;;10.94;55.37
10587;BME280;5341;47.606;7.576;2023-02-17T01:53:13;99880.00;;;10.96;55.41
10587;BME280;5341;47.606;7.576;2023-02-17T01:55:41;99876.50;;;10.96;55.45
10587;BME280;5341;47.606;7.576;2023-02-17T01:58:11;99874.66;;;10.96;55.85
10587;BME280;5341;47.606;7.576;2023-02-17T02:00:42;99871.00;;;10.97;55.89
10587;BME280;5341;47.606;7.576;2023-02-17T02:03:11;99864.78;;;10.97;55.50
10587;BME280;5341;47.606;7.576;2023-02-17T02:05:41;99877.34;;;10.96;55.56
10587;BME280;5341;47.606;7.576;2023-02-17T02:08:09;99877.19;;;10.98;55.66
10587;BME280;5341;47.606;7.576;2023-02-17T02:10:38;99872.66;;;10.98;56.09
10587;BME280;5341;47.606;7.576;2023-02-17T02:13:07;99876.19;;;10.99;55.88
10587;BME280;5341;47.606;7.576;2023-02-17T02:15:39;99878.00;;;10.98;56.54
10587;BME280;5341;47.606;7.576;2023-02-17T02:18:24;99871.81;;;10.98;56.50
10587;BME280;5341;47.606;7.576;2023-02-17T02:21:11;99866.47;;;10.98;56.37
10587;BME280;5341;47.606;7.576;2023-02-17T02:23:54;99860.44;;;10.96;55.84
10587;BME280;5341;47.606;7.576;2023-02-17T02:29:38;99864.97;;;10.95;56.13
10587;BME280;5341;47.606;7.576;2023-02-17T02:32:26;99868.47;;;10.96;56.10
10587;BME280;5341;47.606;7.576;2023-02-17T02:35:05;99871.16;;;10.96;55.92
10587;BME280;5341;47.606;7.576;2023-02-17T02:37:37;99868.63;;;10.94;56.22
10587;BME280;5341;47.606;7.576;2023-02-17T02:40:08;99872.97;;;10.95;56.53
10587;BME280;5341;47.606;7.576;2023-02-17T02:42:38;99876.50;;;10.96;56.39
10587;BME280;5341;47.606;7.576;2023-02-17T02:45:08;99872.97;;;10.95;56.78
10587;BME280;5341;47.606;7.576;2023-02-17T02:47:46;99864.78;;;10.97;56.65
10587;BME280;5341;47.606;7.576;2023-02-17T02:50:20;99858.75;;;10.95;56.38
10587;BME280;5341;47.606;7.576;2023-02-17T02:53:03;99852.56;;;10.94;55.89
10587;BME280;5341;47.606;7.576;2023-02-17T02:55:46;99850.91;;;10.93;56.71
10587;BME280;5341;47.606;7.576;2023-02-17T02:58:20;99844.88;;;10.91;56.40
10587;BME280;5341;47.606;7.576;2023-02-17T03:00:57;99845.00;;;10.90;56.04
10587;BME280;5341;47.606;7.576;2023-02-17T03:03:40;99837.28;;;10.86;56.40
10587;BME280;5341;47.606;7.576;2023-02-17T03:06:15;99842.66;;;10.86;55.91
10587;BME280;5341;47.606;7.576;2023-02-17T03:08:48;99845.31;;;10.86;56.17
10587;BME280;5341;47.606;7.576;2023-02-17T03:11:21;99854.34;;;10.85;55.94
10587;BME280;5341;47.606;7.576;2023-02-17T03:14:02;99837.44;;;10.85;55.51
10587;BME280;5341;47.606;7.576;2023-02-17T03:16:31;99834.94;;;10.83;55.99
10587;BME280;5341;47.606;7.576;2023-02-17T03:19:01;99836.78;;;10.83;55.96
10587;BME280;5341;47.606;7.576;2023-02-17T03:21:34;99839.44;;;10.83;55.67
10587;BME280;5341;47.606;7.576;2023-02-17T03:24:05;99840.28;;;10.83;55.94
10587;BME280;5341;47.606;7.576;2023-02-17T03:26:33;99843.13;;;10.82;55.95
10587;BME280;5341;47.606;7.576;2023-02-17T03:29:00;99843.97;;;10.82;56.03
10587;BME280;5341;47.606;7.576;2023-02-17T03:31:28;99837.78;;;10.82;55.83
10587;BME280;5341;47.606;7.576;2023-02-17T03:33:56;99845.13;;;10.80;55.48
10587;BME280;5341;47.606;7.576;2023-02-17T03:36:25;99841.44;;;10.81;55.67
10587;BME280;5341;47.606;7.576;2023-02-17T03:38:52;99843.28;;;10.80;56.10
10587;BME280;5341;47.606;7.576;2023-02-17T03:41:19;99844.13;;;10.81;55.29
10587;BME280;5341;47.606;7.576;2023-02-17T03:43:47;99850.31;;;10.81;55.83
10587;BME280;5341;47.606;7.576;2023-02-17T03:46:17;99846.63;;;10.82;56.10
10587;BME280;5341;47.606;7.576;2023-02-17T03:48:46;99857.34;;;10.82;56.20
10587;BME280;5341;47.606;7.576;2023-02-17T03:51:15;99861.03;;;10.81;55.74
10587;BME280;5341;47.606;7.576;2023-02-17T03:53:45;99853.00;;;10.81;55.63
10587;BME280;5341;47.606;7.576;2023-02-17T03:56:13;99853.00;;;10.81;56.42
10587;BME280;5341;47.606;7.576;2023-02-17T03:58:42;99852.16;;;10.81;55.85
10587;BME280;5341;47.606;7.576;2023-02-17T04:01:11;99851.31;;;10.80;55.82
10587;BME280;5341;47.606;7.576;2023-02-17T04:03:39;99850.31;;;10.81;56.42
10587;BME280;5341;47.606;7.576;2023-02-17T04:06:08;99857.34;;;10.82;56.45
10587;BME280;5341;47.606;7.576;2023-02-17T04:08:36;99857.34;;;10.82;56.12
10587;BME280;5341;47.606;7.576;2023-02-17T04:11:06;99857.34;;;10.82;56.02
10587;BME280;5341;47.606;7.576;2023-02-17T04:13:34;99858.19;;;10.83;56.46
10587;BME280;5341;47.606;7.576;2023-02-17T04:16:03;99856.50;;;10.82;55.57
10587;BME280;5341;47.606;7.576;2023-02-17T04:18:31;99859.19;;;10.82;55.85
10587;BME280;5341;47.606;7.576;2023-02-17T04:20:58;99856.50;;;10.82;56.10
10587;BME280;5341;47.606;7.576;2023-02-17T04:23:26;99859.19;;;10.82;55.93
10587;BME280;5341;47.606;7.576;2023-02-17T04:25:54;99859.03;;;10.83;56.11
10587;BME280;5341;47.606;7.576;2023-02-17T04:28:23;99853.84;;;10.82;55.88
10587;BME280;5341;47.606;7.576;2023-02-17T04:30:51;99856.50;;;10.82;56.39
10587;BME280;5341;47.606;7.576;2023-02-17T04:33:19;99848.47;;;10.82;56.16
10587;BME280;5341;47.606;7.576;2023-02-17T04:35:46;99842.28;;;10.81;55.98
10587;BME280;5341;47.606;7.576;2023-02-17T04:38:15;99840.44;;;10.82;56.11
10587;BME280;5341;47.606;7.576;2023-02-17T04:40:42;99838.78;;;10.81;55.97
10587;BME280;5341;47.606;7.576;2023-02-17T04:43:10;99835.09;;;10.82;56.29
10587;BME280;5341;47.606;7.576;2023-02-17T04:45:39;99846.63;;;10.82;56.37
10587;BME280;5341;47.606;7.576;2023-02-17T04:48:07;99847.47;;;10.83;55.90
10587;BME280;5341;47.606;7.576;2023-02-17T04:50:34;99835.94;;;10.82;56.06
10587;BME280;5341;47.606;7.576;2023-02-17T04:53:01;99851.00;;;10.83;56.25
10587;BME280;5341;47.606;7.576;2023-02-17T04:55:29;99847.47;;;10.83;56.35
10587;BME280;5341;47.606;7.576;2023-02-17T04:57:58;99843.81;;;10.84;56.48
10587;BME280;5341;47.606;7.576;2023-02-17T05:00:26;99841.13;;;10.84;55.95
10587;BME280;5341;47.606;7.576;2023-02-17T05:02:55;99841.13;;;10.84;56.37
10587;BME280;5341;47.606;7.576;2023-02-17T05:05:22;99836.63;;;10.84;56.56
10587;BME280;5341;47.606;7.576;2023-02-17T05:07:49;99843.63;;;10.85;56.54
10587;BME280;5341;47.606;7.576;2023-02-17T05:10:17;99840.97;;;10.85;55.85
10587;BME280;5341;47.606;7.576;2023-02-17T05:12:45;99831.09;;;10.86;56.43
10587;BME280;5341;47.606;7.576;2023-02-17T05:15:13;99843.47;;;10.87;56.21
10587;BME280;5341;47.606;7.576;2023-02-17T05:17:40;99839.97;;;10.86;56.90
10587;BME280;5341;47.606;7.576;2023-02-17T05:20:10;99839.97;;;10.86;56.46
10587;BME280;5341;47.606;7.576;2023-02-17T05:22:37;99847.16;;;10.86;56.63
10587;BME280;5341;47.606;7.576;2023-02-17T05:25:05;99841.81;;;10.86;56.14
10587;BME280;5341;47.606;7.576;2023-02-17T05:27:34;99845.31;;;10.86;56.16
10587;BME280;5341;47.606;7.576;2023-02-17T05:30:01;99845.31;;;10.86;56.32
10587;BME280;5341;47.606;7.576;2023-02-17T05:32:29;99843.63;;;10.85;55.95
10587;BME280;5341;47.606;7.576;2023-02-17T05:34:56;99847.16;;;10.86;56.84
10587;BME280;5341;47.606;7.576;2023-02-17T05:37:25;99844.47;;;10.86;56.40
10587;BME280;5341;47.606;7.576;2023-02-17T05:39:53;99842.81;;;10.85;56.07
10587;BME280;5341;47.606;7.576;2023-02-17T05:42:20;99851.84;;;10.84;56.51
10587;BME280;5341;47.606;7.576;2023-02-17T05:44:47;99847.31;;;10.84;56.33
10587;BME280;5341;47.606;7.576;2023-02-17T05:47:15;99857.19;;;10.84;56.33
10587;BME280;5341;47.606;7.576;2023-02-17T05:49:42;99847.47;;;10.83;56.55
10587;BME280;5341;47.606;7.576;2023-02-17T05:52:10;99853.66;;;10.83;56.06
10587;BME280;5341;47.606;7.576;2023-02-17T05:54:39;99858.19;;;10.83;56.29
10587;BME280;5341;47.606;7.576;2023-02-17T05:57:06;99857.34;;;10.82;56.17
10587;BME280;5341;47.606;7.576;2023-02-17T05:59:33;99853.84;;;10.82;56.69
10587;BME280;5341;47.606;7.576;2023-02-17T06:02:01;99856.66;;;10.80;56.09
10587;BME280;5341;47.606;7.576;2023-02-17T06:04:28;99858.50;;;10.80;56.25
10587;BME280;5341;47.606;7.576;2023-02-17T06:06:57;99861.34;;;10.78;56.72
10587;BME280;5341;47.606;7.576;2023-02-17T06:09:27;99864.84;;;10.79;56.61
10587;BME280;5341;47.606;7.576;2023-02-17T06:11:58;99861.34;;;10.78;56.55
10587;BME280;5341;47.606;7.576;2023-02-17T06:14:27;99862.47;;;10.76;56.39
10587;BME280;5341;47.606;7.576;2023-02-17T06:16:54;99866.31;;;10.73;56.33
10587;BME280;5341;47.606;7.576;2023-02-17T06:19:22;99866.97;;;10.75;56.62
10587;BME280;5341;47.606;7.576;2023-02-17T06:21:50;99871.50;;;10.75;56.70
10587;BME280;5341;47.606;7.576;2023-02-17T06:24:18;99873.34;;;10.74;57.30
10587;BME280;5341;47.606;7.576;2023-02-17T06:26:45;99875.16;;;10.74;57.15
10587;BME280;5341;47.606;7.576;2023-02-17T06:29:17;99873.50;;;10.73;57.39
10587;BME280;5341;47.606;7.576;2023-02-17T06:31:46;99873.50;;;10.73;57.18
10587;BME280;5341;47.606;7.576;2023-02-17T06:34:15;99878.84;;;10.73;57.63
10587;BME280;5341;47.606;7.576;2023-02-17T06:36:42;99874.66;;;10.70;56.97
10587;BME280;5341;47.606;7.576;2023-02-17T06:39:10;99887.19;;;10.70;57.41
10587;BME280;5341;47.606;7.576;2023-02-17T06:41:38;99888.19;;;10.69;57.45
10587;BME280;5341;47.606;7.576;2023-02-17T06:44:06;99890.88;;;10.69;56.96
10587;BME280;5341;47.606;7.576;2023-02-17T06:46:36;99900.88;;;10.67;57.13
10587;BME280;5341;47.606;7.576;2023-02-17T06:49:04;99901.84;;;10.66;57.44
10587;BME280;5341;47.606;7.576;2023-02-17T06:51:33;99902.84;;;10.65;56.77
10587;BME280;5341;47.606;7.576;2023-02-17T06:54:03;99902.72;;;10.66;57.11
10587;BME280;5341;47.606;7.576;2023-02-17T06:56:31;99895.66;;;10.65;57.59
10587;BME280;5341;47.606;7.576;2023-02-17T06:59:00;99901.84;;;10.66;57.24
10587;BME280;5341;47.606;7.576;2023-02-17T07:01:28;99902.84;;;10.65;57.17
10587;BME280;5341;47.606;7.576;2023-02-17T07:03:58;99892.97;;;10.65;57.07
10587;BME280;5341;47.606;7.576;2023-02-17T07:06:26;99905.41;;;10.66;57.38
10587;BME280;5341;47.606;7.576;2023-02-17T07:08:54;99899.16;;;10.66;57.54
10587;BME280;5341;47.606;7.576;2023-02-17T07:11:22;99905.41;;;10.66;56.99
10587;BME280;5341;47.606;7.576;2023-02-17T07:13:51;99903.69;;;10.65;57.52
10587;BME280;5341;47.606;7.576;2023-02-17T07:16:19;99908.06;;;10.66;57.24
10587;BME280;5341;47.606;7.576;2023-02-17T07:18:49;99913.25;;;10.68;57.07
10587;BME280;5341;47.606;7.576;2023-02-17T07:21:19;99917.63;;;10.69;57.56
10587;BME280;5341;47.606;7.576;2023-02-17T07:23:48;99918.59;;;10.68;57.32
10587;BME280;5341;47.606;7.576;2023-02-17T07:26:16;99921.28;;;10.68;57.57
10587;BME280;5341;47.606;7.576;2023-02-17T07:28:46;99915.78;;;10.69;57.61
10587;BME280;5341;47.606;7.576;2023-02-17T07:31:15;99917.47;;;10.70;57.64
10587;BME280;5341;47.606;7.576;2023-02-17T07:33:43;99922.66;;;10.72;57.35
10587;BME280;5341;47.606;7.576;2023-02-17T07:36:14;99920.81;;;10.72;57.69
10587;BME280;5341;47.606;7.576;2023-02-17T07:38:43;99928.69;;;10.74;57.57
10587;BME280;5341;47.606;7.576;2023-02-17T07:41:13;99930.34;;;10.75;57.66
10587;BME280;5341;47.606;7.576;2023-02-17T07:43:43;99942.59;;;10.77;57.60
10587;BME280;5341;47.606;7.576;2023-02-17T07:46:16;99940.75;;;10.78;57.83
10587;BME280;5341;47.606;7.576;2023-02-17T07:48:45;99942.44;;;10.79;57.57
10587;BME280;5341;47.606;7.576;2023-02-17T07:51:15;99944.97;;;10.80;57.85
10587;BME280;5341;47.606;7.576;2023-02-17T07:53:46;99953.00;;;10.80;58.13
10587;BME280;5341;47.606;7.576;2023-02-17T07:56:16;99968.06;;;10.81;58.37
10587;BME280;5341;47.606;7.576;2023-02-17T07:58:44;99975.25;;;10.81;58.56
10587;BME280;5341;47.606;7.576;2023-02-17T08:01:14;99978.75;;;10.81;59.00
10587;BME280;5341;47.606;7.576;2023-02-17T08:03:42;99972.41;;;10.82;58.69
10587;BME280;5341;47.606;7.576;2023-02-17T08:06:10;99980.28;;;10.84;58.62
10587;BME280;5341;47.606;7.576;2023-02-17T08:08:41;99978.44;;;10.84;58.89
10587;BME280;5341;47.606;7.576;2023-02-17T08:11:33;99983.47;;;10.88;59.37
10587;BME280;5341;47.606;7.576;2023-02-17T08:14:20;99988.69;;;10.89;59.69
10587;BME280;5341;47.606;7.576;2023-02-17T08:16:47;99985.00;;;10.90;59.26
10587;BME280;5341;47.606;7.576;2023-02-17T08:19:14;100004.28;;;10.94;59.29
10587;BME280;5341;47.606;7.576;2023-02-17T08:21:42;99995.09;;;10.96;59.18
10587;BME280;5341;47.606;7.576;2023-02-17T08:24:10;100006.50;;;10.98;59.36
10587;BME280;5341;47.606;7.576;2023-02-17T08:26:39;100001.81;;;11.00;59.71
10587;BME280;5341;47.606;7.576;2023-02-17T08:34:33;100000.06;;;11.09;59.38
10587;BME280;5341;47.606;7.576;2023-02-17T08:39:53;100007.34;;;11.17;60.04
10587;BME280;5341;47.606;7.576;2023-02-17T09:01:22;100040.91;;;11.29;62.66
10587;BME280;5341;47.606;7.576;2023-02-17T09:03:52;100035.38;;;11.30;62.50
10587;BME280;5341;47.606;7.576;2023-02-17T09:06:20;100038.41;;;11.35;62.93
10587;BME280;5341;47.606;7.576;2023-02-17T09:09:01;100038.97;;;11.39;63.05
10587;BME280;5341;47.606;7.576;2023-02-17T09:11:33;100042.16;;;11.42;63.17
10587;BME280;5341;47.606;7.576;2023-02-17T09:14:01;100030.47;;;11.43;63.62
10587;BME280;5341;47.606;7.576;2023-02-17T09:16:51;100031.81;;;11.48;64.17
10587;BME280;5341;47.606;7.576;2023-02-17T09:25:19;100040.81;;;11.64;64.39
10587;BME280;5341;47.606;7.576;2023-02-17T09:28:11;100044.84;;;11.68;64.00
10587;BME280;5341;47.606;7.576;2023-02-17T09:37:20;100046.38;;;11.71;62.44
10587;BME280;5341;47.606;7.576;2023-02-17T09:40:07;100054.41;;;11.71;62.78
10587;BME280;5341;47.606;7.576;2023-02-17T09:45:31;100054.09;;;11.74;61.94
10587;BME280;5341;47.606;7.576;2023-02-17T09:51:34;100051.41;;;11.74;62.21
10587;BME280;5341;47.606;7.576;2023-02-17T09:54:14;100048.59;;;11.76;61.52
10587;BME280;5341;47.606;7.576;2023-02-17T09:56:50;100051.13;;;11.77;61.33
10587;BME280;5341;47.606;7.576;2023-02-17T09:59:36;100046.47;;;11.79;61.52
10587;BME280;5341;47.606;7.576;2023-02-17T10:02:07;100054.34;;;11.81;61.86
10587;BME280;5341;47.606;7.576;2023-02-17T10:04:43;100053.19;;;11.83;61.78
10587;BME280;5341;47.606;7.576;2023-02-17T10:07:16;100055.69;;;11.85;62.14
10587;BME280;5341;47.606;7.576;2023-02-17T10:09:47;100043.84;;;11.87;61.42
10587;BME280;5341;47.606;7.576;2023-02-17T10:12:21;100045.53;;;11.88;62.07
10587;BME280;5341;47.606;7.576;2023-02-17T10:14:52;100037.31;;;11.90;62.29
10587;BME280;5341;47.606;7.576;2023-02-17T10:17:27;100039.84;;;11.91;62.10
10587;BME280;5341;47.606;7.576;2023-02-17T10:20:03;100045.88;;;11.93;62.47
10587;BME280;5341;47.606;7.576;2023-02-17T10:22:32;100038.66;;;11.94;62.28
10587;BME280;5341;47.606;7.576;2023-02-17T10:25:12;100048.22;;;11.96;62.65
10587;BME280;5341;47.606;7.576;2023-02-17T10:27:42;100039.34;;;11.96;62.05
10587;BME280;5341;47.606;7.576;2023-02-17T10:30:24;100033.66;;;11.99;62.12
10587;BME280;5341;47.606;7.576;2023-02-17T10:32:59;100033.53;;;12.00;62.50
10587;BME280;5341;47.606;7.576;2023-02-17T10:35:37;100038.56;;;12.03;62.72
10587;BME280;5341;47.606;7.576;2023-02-17T10:38:14;100031.19;;;12.06;62.79
10587;BME280;5341;47.606;7.576;2023-02-17T10:40:46;100029.19;;;12.08;62.65
10587;BME280;5341;47.606;7.576;2023-02-17T10:43:20;100038.75;;;12.10;62.85
10587;BME280;5341;47.606;7.576;2023-02-17T10:45:49;100033.06;;;12.13;63.13
10587;BME280;5341;47.606;7.576;2023-02-17T10:48:21;100036.28;;;12.17;62.94
10587;BME280;5341;47.606;7.576;2023-02-17T10:50:49;100029.06;;;12.17;63.23
10587;BME280;5341;47.606;7.576;2023-02-17T10:53:19;100028.06;;;12.18;63.33
10587;BME280;5341;47.606;7.576;2023-02-17T10:55:54;100034.09;;;12.20;63.68
10587;BME280;5341;47.606;7.576;2023-02-17T10:58:28;100023.19;;;12.22;63.39
10587;BME280;5341;47.606;7.576;2023-02-17T11:00:59;100019.38;;;12.24;63.35
10587;BME280;5341;47.606;7.576;2023-02-17T11:03:28;100011.16;;;12.26;62.96
10587;BME280;5341;47.606;7.576;2023-02-17T11:05:58;100008.31;;;12.27;63.54
10587;BME280;5341;47.606;7.576;2023-02-17T11:08:33;100016.88;;;12.31;63.32
10587;BME280;5341;47.606;7.576;2023-02-17T11:11:05;100008.50;;;12.34;63.74
10587;BME280;5341;47.606;7.576;2023-02-17T11:13:36;100010.03;;;12.37;63.80
10587;BME280;5341;47.606;7.576;2023-02-17T11:16:05;100017.06;;;12.38;63.48
10587;BME280;5341;47.606;7.576;2023-02-17T11:18:37;100011.38;;;12.41;63.44
10587;BME280;5341;47.606;7.576;2023-02-17T11:21:09;100009.38;;;12.43;63.40
10587;BME280;5341;47.606;7.576;2023-02-17T11:23:47;100006.34;;;12.46;62.89
10587;BME280;5341;47.606;7.576;2023-02-17T11:26:21;100006.19;;;12.47;63.51
10587;BME280;5341;47.606;7.576;2023-02-17T11:28:50;100009.41;;;12.51;63.32
10587;BME280;5341;47.606;7.576;2023-02-17T11:31:22;100004.53;;;12.54;64.00
10587;BME280;5341;47.606;7.576;2023-02-17T11:33:51;99994.31;;;12.58;63.68
10587;BME280;5341;47.606;7.576;2023-02-17T11:36:22;100005.41;;;12.63;64.68
10587;BME280;5341;47.606;7.576;2023-02-17T11:38:50;99996.66;;;12.69;65.08
10587;BME280;5341;47.606;7.576;2023-02-17T11:41:19;99998.72;;;12.75;65.13
10587;BME280;5341;47.606;7.576;2023-02-17T11:43:52;99985.97;;;12.77;64.66
10587;BME280;5341;47.606;7.576;2023-02-17T11:46:28;99985.63;;;12.80;63.97
10587;BME280;5341;47.606;7.576;2023-02-17T11:49:25;99987.28;;;12.81;63.54
10587;BME280;5341;47.606;7.576;2023-02-17T11:52:07;99978.56;;;12.79;63.57
10587;BME280;5341;47.606;7.576;2023-02-17T11:54:46;99980.06;;;12.82;63.99
10587;BME280;5341;47.606;7.576;2023-02-17T11:57:33;99986.97;;;12.84;64.22
10587;BME280;5341;47.606;7.576;2023-02-17T12:00:13;99977.91;;;12.94;64.67
10587;BME280;5341;47.606;7.576;2023-02-17T12:03:20;99981.44;;;13.02;64.51
10587;BME280;5341;47.606;7.576;2023-02-17T12:06:00;99973.19;;;13.04;64.17
10587;BME280;5341;47.606;7.576;2023-02-17T12:08:37;99979.41;;;13.04;64.09
10587;BME280;5341;47.606;7.576;2023-02-17T12:11:17;99975.72;;;13.05;64.19
10587;BME280;5341;47.606;7.576;2023-02-17T12:13:55;99980.91;;;13.07;64.27
10587;BME280;5341;47.606;7.576;2023-02-17T12:16:42;99983.47;;;13.08;63.94
10587;BME280;5341;47.606;7.576;2023-02-17T12:19:27;99981.44;;;13.10;64.08
10587;BME280;5341;47.606;7.576;2023-02-17T12:22:07;99975.91;;;13.12;64.23
10587;BME280;5341;47.606;7.576;2023-02-17T12:25:13;99975.38;;;13.16;64.28
10587;BME280;5341;47.606;7.576;2023-02-17T12:27:55;99974.53;;;13.16;64.53
10587;BME280;5341;47.606;7.576;2023-02-17T12:30:38;99963.34;;;13.21;64.23
10587;BME280;5341;47.606;7.576;2023-02-17T12:33:32;99970.38;;;13.22;64.79
10587;BME280;5341;47.606;7.576;2023-02-17T12:36:08;99974.41;;;13.26;64.68
10587;BME280;5341;47.606;7.576;2023-02-17T12:38:45;99968.50;;;13.30;64.43
10587;BME280;5341;47.606;7.576;2023-02-17T12:41:16;99969.03;;;13.34;64.29
10587;BME280;5341;47.606;7.576;2023-02-17T12:43:48;99965.66;;;13.40;64.90
10587;BME280;5341;47.606;7.576;2023-02-17T12:46:20;99972.19;;;13.45;65.14
10587;BME280;5341;47.606;7.576;2023-02-17T12:48:52;99968.63;;;13.53;65.16
10587;BME280;5341;47.606;7.576;2023-02-17T12:51:26;99964.25;;;13.60;65.22
10587;BME280;5341;47.606;7.576;2023-02-17T12:54:02;99961.53;;;13.68;65.07
10587;BME280;5341;47.606;7.576;2023-02-17T12:56:58;99960.38;;;13.71;64.98
10587;BME280;5341;47.606;7.576;2023-02-17T12:59:42;99963.72;;;13.73;65.04
10587;BME280;5341;47.606;7.576;2023-02-17T13:02:13;99961.34;;;13.78;64.88
10587;BME280;5341;47.606;7.576;2023-02-17T13:04:42;99960.47;;;13.86;65.50
10587;BME280;5341;47.606;7.576;2023-02-17T13:07:38;99950.03;;;13.91;65.17
10587;BME280;5341;47.606;7.576;2023-02-17T13:10:17;99960.47;;;13.94;64.66
10587;BME280;5341;47.606;7.576;2023-02-17T13:12:57;99957.25;;;13.98;64.89
10587;BME280;5341;47.606;7.576;2023-02-17T13:15:29;99956.03;;;14.01;65.17
10587;BME280;5341;47.606;7.576;2023-02-17T13:18:00;99956.88;;;14.01;65.35
10587;BME280;5341;47.606;7.576;2023-02-17T13:20:53;99956.22;;;13.99;65.20
10587;BME280;5341;47.606;7.576;2023-02-17T13:23:35;99956.22;;;13.99;64.66
10587;BME280;5341;47.606;7.576;2023-02-17T13:26:10;99951.50;;;14.01;64.75
10587;BME280;5341;47.606;7.576;2023-02-17T13:28:40;99960.22;;;14.03;64.67
10587;BME280;5341;47.606;7.576;2023-02-17T13:31:09;99957.34;;;14.05;64.59
10587;BME280;5341;47.606;7.576;2023-02-17T13:33:48;99948.97;;;14.08;64.76
10587;BME280;5341;47.606;7.576;2023-02-17T13:36:19;99947.41;;;14.14;64.46
10587;BME280;5341;47.606;7.576;2023-02-17T13:38:56;99944.22;;;14.18;64.71
10587;BME280;5341;47.606;7.576;2023-02-17T13:41:27;99946.72;;;14.20;64.62
10587;BME280;5341;47.606;7.576;2023-02-17T13:43:56;99934.56;;;14.24;64.36
10587;BME280;5341;47.606;7.576;2023-02-17T13:46:25;99932.38;;;14.27;64.18
10587;BME280;5341;47.606;7.576;2023-02-17T13:49:02;99932.03;;;14.30;63.61
10587;BME280;5341;47.606;7.576;2023-02-17T13:51:32;99946.13;;;14.32;63.90
10587;BME280;5341;47.606;7.576;2023-02-17T13:54:07;99947.44;;;14.36;63.79
10587;BME280;5341;47.606;7.576;2023-02-17T13:56:35;99942.72;;;14.38;63.96
10587;BME280;5341;47.606;7.576;2023-02-17T13:59:06;99938.84;;;14.41;63.92
10587;BME280;5341;47.606;7.576;2023-02-17T14:01:36;99941.53;;;14.41;64.01
10587;BME280;5341;47.606;7.576;2023-02-17T14:04:16;99940.34;;;14.44;63.67
10587;BME280;5341;47.606;7.576;2023-02-17T14:06:45;99950.13;;;14.45;63.51
10587;BME280;5341;47.606;7.576;2023-02-17T14:09:20;99945.41;;;14.47;63.41
10587;BME280;5341;47.606;7.576;2023-02-17T14:11:49;99953.13;;;14.50;63.07
10587;BME280;5341;47.606;7.576;2023-02-17T14:14:17;99948.22;;;14.53;62.93
10587;BME280;5341;47.606;7.576;2023-02-17T14:16:54;99946.84;;;14.57;62.78
10587;BME280;5341;47.606;7.576;2023-02-17T14:19:23;99952.53;;;14.62;62.47
10587;BME280;5341;47.606;7.576;2023-02-17T14:21:59;99953.03;;;14.66;62.94
10587;BME280;5341;47.606;7.576;2023-02-17T14:24:29;99951.09;;;14.75;62.58